createdAt,value
2018-08-18T00:00:02.423Z,16.91
2018-08-18T00:01:02.392Z,17.02
2018-08-18T00:02:02.357Z,17.02
2018-08-18T00:03:02.320Z,16.96
2018-08-18T00:04:02.289Z,17.02
2018-08-18T00:05:02.248Z,16.86
2018-08-18T00:06:02.216Z,16.99
2018-08-18T00:07:02.189Z,16.97
2018-08-18T00:08:02.150Z,17.01
2018-08-18T00:09:02.112Z,16.83
2018-08-18T00:10:02.079Z,16.86
2018-08-18T00:11:02.052Z,16.86
2018-08-18T00:12:02.008Z,16.89
2018-08-18T00:13:01.985Z,16.84
2018-08-18T00:14:01.942Z,16.90
2018-08-18T00:15:01.907Z,16.91
2018-08-18T00:16:01.874Z,16.90
2018-08-18T00:17:01.842Z,16.87
2018-08-18T00:18:01.803Z,16.89
2018-08-18T00:19:01.769Z,16.93
2018-08-18T00:20:01.732Z,16.90
2018-08-18T00:21:01.703Z,16.90
2018-08-18T00:22:01.668Z,16.87
2018-08-18T00:23:01.633Z,16.89
2018-08-18T00:24:01.594Z,16.84
2018-08-18T00:25:01.565Z,16.84
2018-08-18T00:26:01.528Z,16.83
2018-08-18T00:27:01.499Z,16.78
2018-08-18T00:28:01.463Z,16.75
2018-08-18T00:29:01.423Z,16.76
2018-08-18T00:30:01.391Z,16.74
2018-08-18T00:31:01.358Z,16.69
2018-08-18T00:32:01.318Z,16.75
2018-08-18T00:33:01.292Z,16.66
2018-08-18T00:34:01.253Z,16.66
2018-08-18T00:35:01.222Z,16.66
2018-08-18T00:36:01.186Z,16.65
2018-08-18T00:37:01.148Z,16.71
2018-08-18T00:38:01.112Z,16.68
2018-08-18T00:39:01.082Z,16.66
2018-08-18T00:40:01.049Z,16.66
2018-08-18T00:41:01.013Z,16.68
2018-08-18T00:42:00.974Z,16.64
2018-08-18T00:43:00.940Z,16.68
2018-08-18T00:44:00.902Z,16.71
2018-08-18T00:45:00.878Z,16.66
2018-08-18T00:46:00.836Z,16.57
2018-08-18T00:47:00.805Z,16.61
2018-08-18T00:48:00.770Z,16.51
2018-08-18T00:49:00.731Z,16.50
2018-08-18T00:50:00.696Z,16.51
2018-08-18T00:51:00.666Z,16.54
2018-08-18T00:52:00.627Z,16.51
2018-08-18T00:53:00.598Z,16.51
2018-08-18T00:54:00.564Z,16.56
2018-08-18T00:55:00.526Z,16.60
2018-08-18T00:56:00.497Z,16.57
2018-08-18T00:57:00.459Z,16.49
2018-08-18T00:58:00.426Z,16.49
2018-08-18T00:59:00.391Z,16.50
2018-08-18T01:00:00.355Z,16.51
2018-08-18T01:01:00.315Z,16.47
2018-08-18T01:02:00.282Z,16.46
2018-08-18T01:03:00.247Z,16.42
2018-08-18T01:04:00.210Z,16.46
2018-08-18T01:05:00.182Z,16.46
2018-08-18T01:06:00.147Z,16.36
2018-08-18T01:07:00.113Z,16.43
2018-08-18T01:08:00.081Z,16.36
2018-08-18T01:09:00.039Z,16.42
2018-08-18T01:10:00.004Z,16.41
2018-08-18T01:10:59.991Z,16.35
2018-08-18T01:12:00.005Z,16.26
2018-08-18T01:12:59.992Z,16.24
2018-08-18T01:13:59.896Z,16.28
2018-08-18T01:14:59.884Z,16.28
2018-08-18T01:15:59.797Z,16.21
2018-08-18T01:16:59.768Z,16.29
2018-08-18T01:17:59.731Z,16.20
2018-08-18T01:18:59.696Z,16.20
2018-08-18T01:19:59.665Z,16.26
2018-08-18T01:20:59.627Z,16.31
2018-08-18T01:21:59.591Z,16.28
2018-08-18T01:22:59.553Z,16.23
2018-08-18T01:23:59.519Z,16.26
2018-08-18T01:24:59.491Z,16.23
2018-08-18T01:25:59.451Z,16.10
2018-08-18T01:26:59.468Z,16.13
2018-08-18T01:27:59.378Z,16.09
2018-08-18T01:28:59.351Z,16.10
2018-08-18T01:29:59.312Z,16.09
2018-08-18T01:30:59.278Z,16.09
2018-08-18T01:31:59.250Z,16.05
2018-08-18T01:32:59.209Z,16.12
2018-08-18T01:33:59.175Z,16.08
2018-08-18T01:34:59.136Z,16.08
2018-08-18T01:35:59.102Z,16.02
2018-08-18T01:36:59.071Z,16.04
2018-08-18T01:37:59.033Z,16.01
2018-08-18T01:38:59.000Z,16.02
2018-08-18T01:39:58.966Z,16.00
2018-08-18T01:40:58.925Z,16.05
2018-08-18T01:41:58.892Z,16.02
2018-08-18T01:42:58.861Z,16.01
2018-08-18T01:43:58.827Z,16.00
2018-08-18T01:44:58.787Z,16.10
2018-08-18T01:45:58.760Z,16.10
2018-08-18T01:46:58.718Z,16.05
2018-08-18T01:47:58.681Z,16.10
2018-08-18T01:48:58.653Z,16.13
2018-08-18T01:49:58.614Z,16.05
2018-08-18T01:50:58.587Z,16.08
2018-08-18T01:51:58.548Z,16.12
2018-08-18T01:52:58.509Z,16.02
2018-08-18T01:53:58.474Z,16.12
2018-08-18T01:54:58.438Z,16.09
2018-08-18T01:55:58.404Z,16.09
2018-08-18T01:56:58.374Z,16.09
2018-08-18T01:57:58.338Z,16.09
2018-08-18T01:58:58.301Z,16.12
2018-08-18T01:59:58.263Z,16.10
2018-08-18T02:00:58.239Z,16.01
2018-08-18T02:01:58.198Z,16.05
2018-08-18T02:02:58.162Z,16.09
2018-08-18T02:03:58.130Z,16.08
2018-08-18T02:04:58.093Z,16.10
2018-08-18T02:05:58.055Z,16.12
2018-08-18T02:06:58.022Z,16.04
2018-08-18T02:07:57.987Z,16.13
2018-08-18T02:08:57.955Z,16.09
2018-08-18T02:09:57.919Z,16.08
2018-08-18T02:10:57.884Z,15.98
2018-08-18T02:11:57.851Z,16.02
2018-08-18T02:12:57.811Z,16.01
2018-08-18T02:13:57.778Z,16.04
2018-08-18T02:14:57.743Z,16.01
2018-08-18T02:15:57.710Z,16.08
2018-08-18T02:16:57.671Z,16.01
2018-08-18T02:17:57.635Z,15.97
2018-08-18T02:18:57.616Z,15.98
2018-08-18T02:19:57.570Z,15.92
2018-08-18T02:20:57.537Z,16.02
2018-08-18T02:21:57.507Z,15.98
2018-08-18T02:22:57.466Z,15.91
2018-08-18T02:23:57.432Z,15.88
2018-08-18T02:24:57.391Z,15.92
2018-08-18T02:25:57.359Z,15.90
2018-08-18T02:26:57.323Z,15.65
2018-08-18T02:27:57.287Z,15.72
2018-08-18T02:28:57.257Z,15.72
2018-08-18T02:29:57.224Z,15.67
2018-08-18T02:30:57.184Z,15.64
2018-08-18T02:31:57.148Z,15.61
2018-08-18T02:32:57.121Z,15.57
2018-08-18T02:33:57.083Z,15.51
2018-08-18T02:34:57.052Z,15.54
2018-08-18T02:35:57.013Z,15.58
2018-08-18T02:36:56.974Z,15.52
2018-08-18T02:37:56.939Z,15.59
2018-08-18T02:38:56.904Z,15.55
2018-08-18T02:39:56.882Z,15.51
2018-08-18T02:40:56.838Z,15.55
2018-08-18T02:41:56.800Z,15.47
2018-08-18T02:42:56.787Z,15.46
2018-08-18T02:43:56.734Z,15.49
2018-08-18T02:44:56.695Z,15.36
2018-08-18T02:45:56.660Z,15.42
2018-08-18T02:46:56.627Z,15.39
2018-08-18T02:47:56.594Z,15.36
2018-08-18T02:48:56.553Z,15.36
2018-08-18T02:49:56.519Z,15.37
2018-08-18T02:50:56.484Z,15.33
2018-08-18T02:51:56.447Z,15.37
2018-08-18T02:52:56.419Z,15.43
2018-08-18T02:53:56.381Z,15.39
2018-08-18T02:54:56.348Z,15.44
2018-08-18T02:55:56.314Z,15.51
2018-08-18T02:56:56.279Z,15.49
2018-08-18T02:57:56.238Z,15.42
2018-08-18T02:58:56.208Z,15.43
2018-08-18T02:59:56.168Z,15.43
2018-08-18T03:00:56.139Z,15.46
2018-08-18T03:01:56.101Z,15.40
2018-08-18T03:02:56.066Z,15.43
2018-08-18T03:03:56.031Z,15.35
2018-08-18T03:04:55.998Z,15.40
2018-08-18T03:05:55.961Z,15.37
2018-08-18T03:06:55.931Z,15.40
2018-08-18T03:07:55.956Z,15.27
2018-08-18T03:08:55.852Z,15.25
2018-08-18T03:09:55.818Z,15.33
2018-08-18T03:10:55.780Z,15.24
2018-08-18T03:11:55.749Z,15.25
2018-08-18T03:12:55.716Z,15.33
2018-08-18T03:13:55.681Z,15.25
2018-08-18T03:14:55.645Z,15.27
2018-08-18T03:15:55.609Z,15.24
2018-08-18T03:16:55.574Z,15.25
2018-08-18T03:17:55.533Z,15.24
2018-08-18T03:18:55.504Z,15.29
2018-08-18T03:19:55.468Z,15.31
2018-08-18T03:20:55.430Z,15.31
2018-08-18T03:21:55.391Z,15.29
2018-08-18T03:22:55.356Z,15.29
2018-08-18T03:23:55.322Z,15.19
2018-08-18T03:24:55.290Z,15.18
2018-08-18T03:25:55.258Z,15.19
2018-08-18T03:26:55.223Z,15.21
2018-08-18T03:27:55.183Z,15.28
2018-08-18T03:28:55.181Z,15.24
2018-08-18T03:29:55.108Z,15.27
2018-08-18T03:30:55.075Z,15.28
2018-08-18T03:31:55.046Z,15.31
2018-08-18T03:32:55.007Z,15.28
2018-08-18T03:33:54.973Z,15.33
2018-08-18T03:34:54.933Z,15.37
2018-08-18T03:35:54.900Z,15.22
2018-08-18T03:36:54.869Z,15.22
2018-08-18T03:37:54.830Z,15.19
2018-08-18T03:38:54.795Z,15.36
2018-08-18T03:39:54.758Z,15.28
2018-08-18T03:40:54.723Z,15.22
2018-08-18T03:41:54.683Z,15.18
2018-08-18T03:42:54.651Z,15.24
2018-08-18T03:43:54.614Z,15.22
2018-08-18T03:44:54.584Z,15.18
2018-08-18T03:45:54.549Z,15.24
2018-08-18T03:46:54.533Z,15.21
2018-08-18T03:47:54.477Z,15.31
2018-08-18T03:48:54.437Z,15.24
2018-08-18T03:49:54.399Z,15.15
2018-08-18T03:50:54.370Z,15.22
2018-08-18T03:51:54.336Z,15.22
2018-08-18T03:52:54.296Z,15.22
2018-08-18T03:53:54.261Z,15.24
2018-08-18T04:07:00.443Z,15.06
2018-08-18T04:08:00.373Z,15.22
2018-08-18T04:09:00.331Z,15.24
2018-08-18T04:10:00.289Z,15.24
2018-08-18T04:11:00.258Z,15.18
2018-08-18T04:12:00.211Z,15.17
2018-08-18T04:13:00.173Z,15.09
2018-08-18T04:14:00.138Z,15.09
2018-08-18T04:15:00.103Z,15.09
2018-08-18T04:16:00.066Z,14.96
2018-08-18T04:17:00.026Z,15.02
2018-08-18T04:17:59.988Z,14.99
2018-08-18T04:18:59.999Z,14.99
2018-08-18T04:19:59.916Z,14.94
2018-08-18T04:20:59.879Z,14.89
2018-08-18T04:21:59.843Z,14.92
2018-08-18T04:22:59.800Z,14.88
2018-08-18T04:23:59.764Z,14.89
2018-08-18T04:24:59.737Z,14.89
2018-08-18T04:25:59.696Z,14.81
2018-08-18T04:26:59.662Z,14.89
2018-08-18T04:27:59.627Z,14.92
2018-08-18T04:28:59.592Z,14.86
2018-08-18T04:29:59.549Z,14.85
2018-08-18T04:30:59.513Z,14.89
2018-08-18T04:31:59.474Z,14.92
2018-08-18T04:32:59.441Z,15.00
2018-08-18T04:33:59.406Z,14.96
2018-08-18T04:34:59.373Z,14.97
2018-08-18T04:35:59.333Z,14.92
2018-08-18T04:36:59.303Z,14.84
2018-08-18T04:37:59.262Z,14.69
2018-08-18T04:38:59.229Z,14.72
2018-08-18T04:39:59.199Z,14.63
2018-08-18T04:40:59.158Z,14.69
2018-08-18T04:41:59.124Z,14.65
2018-08-18T04:42:59.079Z,14.63
2018-08-18T04:43:59.069Z,14.54
2018-08-18T04:44:59.013Z,14.58
2018-08-18T04:45:58.976Z,14.55
2018-08-18T04:46:58.944Z,14.55
2018-08-18T04:47:58.949Z,14.59
2018-08-18T04:48:58.871Z,14.63
2018-08-18T04:49:58.859Z,14.69
2018-08-18T04:50:58.793Z,14.62
2018-08-18T04:51:58.764Z,14.63
2018-08-18T04:52:58.728Z,14.77
2018-08-18T04:53:58.690Z,14.70
2018-08-18T04:54:58.651Z,14.72
2018-08-18T04:55:58.618Z,14.73
2018-08-18T04:56:58.633Z,14.88
2018-08-18T04:57:58.547Z,14.89
2018-08-18T04:58:58.513Z,14.89
2018-08-18T04:59:58.478Z,14.85
2018-08-18T05:00:58.441Z,14.91
2018-08-18T05:01:58.402Z,14.96
2018-08-18T05:02:58.366Z,14.92
2018-08-18T05:03:58.333Z,15.03
2018-08-18T05:04:58.338Z,15.02
2018-08-18T05:05:58.260Z,14.96
2018-08-18T05:06:58.231Z,14.89
2018-08-18T05:07:58.190Z,14.89
2018-08-18T05:08:58.233Z,14.86
2018-08-18T05:09:58.121Z,14.97
2018-08-18T05:10:58.090Z,15.00
2018-08-18T05:11:58.052Z,14.94
2018-08-18T05:12:58.013Z,14.99
2018-08-18T05:13:57.975Z,15.00
2018-08-18T05:14:57.936Z,14.94
2018-08-18T05:15:57.909Z,14.99
2018-08-18T05:16:57.868Z,15.09
2018-08-18T05:17:57.842Z,15.02
2018-08-18T05:18:57.874Z,15.11
2018-08-18T05:19:57.766Z,15.14
2018-08-18T05:20:57.728Z,15.09
2018-08-18T05:21:57.689Z,15.18
2018-08-18T05:22:57.653Z,15.10
2018-08-18T05:23:57.623Z,15.10
2018-08-18T05:24:57.585Z,15.11
2018-08-18T05:25:57.554Z,15.09
2018-08-18T05:26:57.513Z,15.19
2018-08-18T05:27:57.482Z,15.19
2018-08-18T05:28:57.446Z,15.31
2018-08-18T05:29:57.408Z,15.37
2018-08-18T05:30:57.375Z,15.37
2018-08-18T05:31:57.339Z,15.36
2018-08-18T05:32:57.303Z,15.44
2018-08-18T05:33:57.264Z,15.46
2018-08-18T05:34:57.227Z,15.55
2018-08-18T05:35:57.194Z,15.44
2018-08-18T05:36:57.158Z,15.44
2018-08-18T05:37:57.127Z,15.49
2018-08-18T05:38:57.093Z,15.46
2018-08-18T05:39:57.052Z,15.46
2018-08-18T05:40:57.018Z,15.44
2018-08-18T05:41:56.982Z,15.46
2018-08-18T05:42:56.951Z,15.49
2018-08-18T05:43:56.916Z,15.51
2018-08-18T05:44:56.880Z,15.55
2018-08-18T05:45:56.842Z,15.46
2018-08-18T05:46:56.804Z,15.47
2018-08-18T05:47:56.772Z,15.57
2018-08-18T05:48:56.742Z,15.52
2018-08-18T05:49:56.702Z,15.46
2018-08-18T05:50:56.668Z,15.54
2018-08-18T05:51:56.635Z,15.59
2018-08-18T05:52:56.600Z,15.68
2018-08-18T05:53:56.560Z,15.67
2018-08-18T05:54:56.525Z,15.65
2018-08-18T05:55:56.494Z,15.65
2018-08-18T05:56:56.464Z,15.75
2018-08-18T05:57:56.420Z,15.86
2018-08-18T05:58:56.386Z,15.91
2018-08-18T05:59:56.353Z,15.86
2018-08-18T06:00:56.315Z,15.94
2018-08-18T06:01:56.284Z,15.94
2018-08-18T06:02:56.248Z,16.02
2018-08-18T06:03:56.213Z,16.04
2018-08-18T06:04:56.180Z,16.02
2018-08-18T06:05:56.141Z,16.13
2018-08-18T06:06:56.109Z,16.15
2018-08-18T06:07:56.073Z,16.23
2018-08-18T06:08:56.035Z,16.28
2018-08-18T06:09:56.009Z,16.33
2018-08-18T06:10:55.975Z,16.39
2018-08-18T06:11:55.986Z,16.46
2018-08-18T06:12:55.896Z,16.47
2018-08-18T06:13:55.869Z,16.51
2018-08-18T06:14:55.836Z,16.54
2018-08-18T06:15:55.798Z,16.54
2018-08-18T06:16:55.765Z,16.65
2018-08-18T06:17:55.723Z,16.66
2018-08-18T06:18:55.693Z,16.64
2018-08-18T06:19:55.657Z,16.74
2018-08-18T06:20:55.620Z,16.84
2018-08-18T06:21:55.594Z,16.86
2018-08-18T06:22:55.554Z,16.94
2018-08-18T06:23:55.521Z,17.12
2018-08-18T06:24:55.490Z,17.04
2018-08-18T06:25:55.452Z,17.11
2018-08-18T06:26:55.419Z,17.26
2018-08-18T06:27:55.384Z,17.26
2018-08-18T06:28:55.359Z,17.20
2018-08-18T06:29:55.317Z,17.24
2018-08-18T06:30:55.279Z,17.23
2018-08-18T06:31:55.244Z,17.33
2018-08-18T06:32:55.208Z,17.34
2018-08-18T06:33:55.179Z,17.42
2018-08-18T06:34:55.186Z,17.52
2018-08-18T06:35:55.110Z,17.49
2018-08-18T06:36:55.080Z,17.57
2018-08-18T06:37:55.039Z,17.65
2018-08-18T06:38:55.007Z,17.67
2018-08-18T06:39:54.973Z,17.72
2018-08-18T06:40:54.964Z,17.71
2018-08-18T06:41:54.947Z,17.64
2018-08-18T06:42:54.873Z,17.74
2018-08-18T06:43:54.838Z,17.80
2018-08-18T06:44:54.803Z,17.89
2018-08-18T06:45:54.773Z,17.97
2018-08-18T06:46:54.738Z,18.03
2018-08-18T06:47:54.704Z,18.00
2018-08-18T06:48:54.679Z,18.18
2018-08-18T06:49:54.631Z,18.15
2018-08-18T06:50:54.608Z,18.15
2018-08-18T06:51:54.566Z,18.25
2018-08-18T06:52:54.532Z,18.28
2018-08-18T06:53:54.504Z,18.35
2018-08-18T06:54:54.569Z,18.40
2018-08-18T06:55:54.434Z,18.47
2018-08-18T06:56:54.405Z,18.44
2018-08-18T06:57:54.361Z,18.45
2018-08-18T06:58:54.330Z,18.55
2018-08-18T06:59:54.300Z,18.59
2018-08-18T07:00:54.268Z,18.63
2018-08-18T07:01:54.233Z,18.62
2018-08-18T07:02:54.196Z,18.62
2018-08-18T07:03:54.165Z,18.78
2018-08-18T07:04:54.129Z,18.70
2018-08-18T07:05:54.114Z,18.80
2018-08-18T07:06:54.068Z,18.80
2018-08-18T07:07:54.082Z,18.80
2018-08-18T07:08:54.002Z,18.88
2018-08-18T07:09:53.964Z,18.84
2018-08-18T07:10:53.931Z,18.89
2018-08-18T07:11:53.898Z,18.95
2018-08-18T07:12:53.862Z,18.92
2018-08-18T07:13:54.558Z,19.08
2018-08-18T07:14:53.800Z,19.15
2018-08-18T07:15:53.765Z,19.08
2018-08-18T07:16:53.737Z,19.27
2018-08-18T07:17:53.702Z,19.22
2018-08-18T07:18:53.668Z,19.26
2018-08-18T07:19:53.635Z,19.34
2018-08-18T07:20:53.604Z,19.30
2018-08-18T07:21:53.568Z,19.31
2018-08-18T07:22:53.535Z,19.30
2018-08-18T07:23:53.502Z,19.31
2018-08-18T07:24:53.472Z,19.37
2018-08-18T07:25:53.444Z,19.36
2018-08-18T07:26:53.408Z,19.41
2018-08-18T07:27:53.385Z,19.41
2018-08-18T07:28:53.431Z,19.47
2018-08-18T07:29:53.318Z,19.44
2018-08-18T07:30:53.303Z,19.63
2018-08-18T07:31:53.244Z,19.67
2018-08-18T07:32:53.209Z,19.73
2018-08-18T07:33:53.171Z,19.69
2018-08-18T07:34:53.142Z,19.76
2018-08-18T07:35:53.115Z,19.84
2018-08-18T07:36:53.076Z,19.85
2018-08-18T07:37:53.045Z,19.82
2018-08-18T07:38:53.015Z,19.85
2018-08-18T07:39:52.982Z,19.85
2018-08-18T07:40:52.953Z,19.94
2018-08-18T07:41:52.909Z,19.96
2018-08-18T07:42:52.879Z,20.11
2018-08-18T07:43:52.847Z,20.06
2018-08-18T07:44:52.812Z,20.18
2018-08-18T07:45:52.785Z,20.09
2018-08-18T07:46:52.753Z,20.04
2018-08-18T07:47:52.717Z,20.09
2018-08-18T07:48:52.684Z,20.18
2018-08-18T07:49:52.660Z,20.21
2018-08-18T07:50:52.621Z,20.31
2018-08-18T07:51:52.589Z,20.28
2018-08-18T07:52:52.559Z,20.28
2018-08-18T07:53:52.521Z,20.37
2018-08-18T07:54:52.489Z,20.36
2018-08-18T07:55:52.457Z,20.26
2018-08-18T07:56:52.424Z,20.41
2018-08-18T07:57:52.396Z,20.41
2018-08-18T07:58:52.365Z,20.41
2018-08-18T07:59:52.373Z,20.43
2018-08-18T08:00:52.299Z,20.60
2018-08-18T08:01:52.263Z,20.66
2018-08-18T08:02:52.237Z,20.56
2018-08-18T08:03:52.201Z,20.69
2018-08-18T08:04:52.175Z,20.75
2018-08-18T08:05:52.204Z,20.77
2018-08-18T08:06:52.104Z,20.82
2018-08-18T08:07:52.072Z,20.81
2018-08-18T08:08:52.038Z,20.82
2018-08-18T08:09:52.011Z,20.88
2018-08-18T08:10:51.978Z,20.87
2018-08-18T08:11:51.946Z,20.88
2018-08-18T08:12:51.937Z,21.03
2018-08-18T08:13:51.887Z,21.00
2018-08-18T08:14:51.848Z,20.97
2018-08-18T08:15:51.816Z,21.02
2018-08-18T08:16:51.781Z,21.12
2018-08-18T08:17:51.756Z,21.17
2018-08-18T08:18:51.722Z,21.15
2018-08-18T08:19:51.705Z,21.09
2018-08-18T08:20:51.662Z,21.12
2018-08-18T08:21:51.635Z,21.21
2018-08-18T08:22:51.600Z,21.12
2018-08-18T08:23:51.565Z,21.14
2018-08-18T08:24:51.533Z,21.12
2018-08-18T08:25:51.500Z,21.09
2018-08-18T08:26:51.465Z,21.11
2018-08-18T08:27:51.438Z,21.15
2018-08-18T08:28:51.401Z,21.24
2018-08-18T08:29:51.408Z,21.12
2018-08-18T08:30:51.343Z,21.15
2018-08-18T08:31:51.311Z,21.17
2018-08-18T08:32:51.283Z,21.29
2018-08-18T08:33:51.250Z,21.25
2018-08-18T08:34:51.213Z,21.27
2018-08-18T08:35:51.185Z,21.27
2018-08-18T08:36:51.240Z,21.32
2018-08-18T08:37:51.125Z,21.33
2018-08-18T08:38:51.086Z,21.37
2018-08-18T08:39:51.056Z,21.43
2018-08-18T08:40:51.022Z,21.35
2018-08-18T08:41:51.005Z,21.39
2018-08-18T08:42:50.973Z,21.33
2018-08-18T08:43:50.933Z,21.40
2018-08-18T08:44:50.905Z,21.50
2018-08-18T08:45:50.864Z,21.43
2018-08-18T08:46:50.835Z,21.40
2018-08-18T08:47:50.811Z,21.42
2018-08-18T08:48:50.772Z,21.48
2018-08-18T08:49:50.750Z,21.39
2018-08-18T08:50:50.711Z,21.43
2018-08-18T08:51:50.677Z,21.42
2018-08-18T08:52:50.646Z,21.46
2018-08-18T08:53:50.620Z,21.50
2018-08-18T08:54:50.586Z,21.52
2018-08-18T08:55:50.563Z,21.36
2018-08-18T08:56:50.540Z,21.42
2018-08-18T08:57:50.604Z,21.45
2018-08-18T08:58:50.525Z,21.45
2018-08-18T08:59:50.427Z,21.58
2018-08-18T09:00:50.399Z,21.62
2018-08-18T09:01:50.373Z,21.69
2018-08-18T09:02:50.342Z,21.67
2018-08-18T09:03:50.309Z,21.62
2018-08-18T09:04:50.276Z,21.57
2018-08-18T09:05:50.238Z,21.61
2018-08-18T09:06:50.235Z,21.60
2018-08-18T09:07:50.181Z,21.43
2018-08-18T09:08:50.152Z,21.54
2018-08-18T09:09:50.114Z,21.60
2018-08-18T09:10:50.084Z,21.60
2018-08-18T09:11:50.054Z,21.57
2018-08-18T09:12:50.023Z,21.62
2018-08-18T09:13:49.999Z,21.66
2018-08-18T09:14:49.960Z,21.64
2018-08-18T09:15:49.929Z,21.72
2018-08-18T09:16:49.908Z,21.83
2018-08-18T09:17:49.863Z,21.83
2018-08-18T09:18:49.834Z,21.85
2018-08-18T09:19:49.805Z,21.96
2018-08-18T09:20:49.774Z,22.11
2018-08-18T09:21:49.749Z,22.07
2018-08-18T09:22:49.712Z,22.11
2018-08-18T09:23:49.678Z,22.11
2018-08-18T09:24:49.644Z,22.13
2018-08-18T09:25:49.630Z,22.07
2018-08-18T09:26:49.588Z,22.18
2018-08-18T09:27:49.556Z,22.25
2018-08-18T09:28:49.527Z,22.22
2018-08-18T09:29:49.512Z,22.32
2018-08-18T09:30:49.462Z,22.39
2018-08-18T09:31:49.431Z,22.43
2018-08-18T09:32:49.401Z,22.48
2018-08-18T09:33:49.377Z,22.66
2018-08-18T09:34:49.364Z,22.78
2018-08-18T09:35:49.311Z,22.78
2018-08-18T09:36:49.282Z,22.69
2018-08-18T09:37:49.251Z,22.78
2018-08-18T09:38:49.213Z,22.72
2018-08-18T09:39:49.185Z,22.80
2018-08-18T09:40:49.157Z,22.80
2018-08-18T09:41:49.122Z,22.65
2018-08-18T09:42:49.090Z,22.72
2018-08-18T09:43:49.068Z,22.63
2018-08-18T09:44:49.027Z,22.65
2018-08-18T09:45:49.002Z,22.65
2018-08-18T09:46:48.970Z,22.66
2018-08-18T09:47:48.943Z,22.81
2018-08-18T09:48:48.913Z,22.78
2018-08-18T09:49:48.882Z,22.78
2018-08-18T09:50:48.845Z,22.80
2018-08-18T09:51:48.814Z,22.78
2018-08-18T09:52:48.783Z,22.72
2018-08-18T09:53:48.756Z,22.72
2018-08-18T09:54:48.725Z,22.84
2018-08-18T09:55:48.694Z,22.84
2018-08-18T09:56:48.660Z,23.00
2018-08-18T09:57:48.634Z,23.13
2018-08-18T09:58:48.607Z,23.10
2018-08-18T09:59:48.578Z,23.18
2018-08-18T10:00:48.543Z,23.10
2018-08-18T10:01:48.517Z,22.98
2018-08-18T10:02:48.476Z,23.05
2018-08-18T10:03:48.445Z,23.17
2018-08-18T10:04:48.420Z,23.06
2018-08-18T10:05:48.390Z,23.03
2018-08-18T10:06:48.359Z,23.17
2018-08-18T10:21:07.858Z,23.23
2018-08-18T10:22:07.780Z,23.23
2018-08-18T10:23:07.739Z,23.23
2018-08-18T10:24:07.702Z,23.25
2018-08-18T10:25:07.668Z,23.36
2018-08-18T10:26:07.636Z,23.32
2018-08-18T10:27:07.655Z,23.21
2018-08-18T10:28:07.573Z,23.12
2018-08-18T10:29:07.540Z,23.15
2018-08-18T10:30:07.506Z,23.23
2018-08-18T10:31:07.473Z,23.34
2018-08-18T10:32:07.437Z,23.28
2018-08-18T10:33:07.411Z,23.36
2018-08-18T10:34:07.378Z,23.51
2018-08-18T10:35:07.347Z,23.50
2018-08-18T10:36:07.317Z,23.51
2018-08-18T10:37:07.280Z,23.59
2018-08-18T10:38:07.255Z,23.51
2018-08-18T10:39:07.228Z,23.54
2018-08-18T10:40:08.027Z,23.39
2018-08-18T10:41:07.163Z,23.43
2018-08-18T10:42:07.217Z,23.43
2018-08-18T10:43:07.101Z,23.47
2018-08-18T10:44:07.065Z,23.50
2018-08-18T10:45:07.033Z,23.56
2018-08-18T10:46:07.004Z,23.63
2018-08-18T10:47:06.979Z,23.69
2018-08-18T10:48:06.969Z,23.73
2018-08-18T10:49:06.916Z,23.73
2018-08-18T10:50:06.884Z,23.84
2018-08-18T10:51:06.863Z,23.88
2018-08-18T10:52:06.824Z,23.99
2018-08-18T10:53:06.795Z,24.06
2018-08-18T10:54:06.764Z,24.02
2018-08-18T10:55:06.730Z,24.02
2018-08-18T10:56:06.699Z,24.17
2018-08-18T10:57:06.668Z,23.95
2018-08-18T10:58:06.638Z,24.18
2018-08-18T10:59:06.611Z,24.24
2018-08-18T11:00:06.583Z,24.21
2018-08-18T11:01:06.555Z,24.35
2018-08-18T11:02:06.524Z,24.42
2018-08-18T11:03:06.497Z,24.40
2018-08-18T11:04:06.460Z,24.43
2018-08-18T11:05:06.428Z,24.30
2018-08-18T11:06:06.400Z,24.16
2018-08-18T11:07:06.371Z,24.17
2018-08-18T11:08:06.343Z,24.10
2018-08-18T11:09:06.306Z,24.16
2018-08-18T11:10:06.278Z,24.13
2018-08-18T11:11:06.256Z,24.17
2018-08-18T11:12:06.224Z,24.14
2018-08-18T11:13:06.194Z,24.16
2018-08-18T11:14:06.164Z,24.18
2018-08-18T11:15:06.129Z,24.21
2018-08-18T11:16:06.098Z,24.18
2018-08-18T11:17:06.067Z,24.40
2018-08-18T11:18:06.039Z,24.29
2018-08-18T11:19:06.015Z,24.32
2018-08-18T11:20:05.988Z,24.33
2018-08-18T11:21:05.954Z,24.42
2018-08-18T11:22:05.924Z,24.28
2018-08-18T11:23:05.915Z,24.29
2018-08-18T11:24:05.863Z,24.35
2018-08-18T11:25:05.835Z,24.35
2018-08-18T11:26:05.804Z,24.43
2018-08-18T11:27:05.774Z,24.40
2018-08-18T11:28:05.741Z,24.29
2018-08-18T11:29:05.711Z,24.39
2018-08-18T11:30:05.683Z,24.36
2018-08-18T11:31:05.657Z,24.40
2018-08-18T11:32:05.627Z,24.43
2018-08-18T11:33:05.598Z,24.53
2018-08-18T11:34:05.567Z,24.45
2018-08-18T11:35:05.597Z,24.57
2018-08-18T11:36:05.512Z,24.51
2018-08-18T11:37:05.474Z,24.57
2018-08-18T11:38:05.453Z,24.61
2018-08-18T11:39:05.420Z,24.54
2018-08-18T11:40:05.392Z,24.55
2018-08-18T11:41:05.355Z,24.55
2018-08-18T11:42:05.333Z,24.48
2018-08-18T11:43:05.301Z,24.51
2018-08-18T11:44:05.280Z,24.33
2018-08-18T11:45:05.243Z,24.40
2018-08-18T11:46:05.212Z,24.47
2018-08-18T11:47:05.250Z,24.50
2018-08-18T11:48:05.150Z,24.55
2018-08-18T11:49:05.121Z,24.60
2018-08-18T11:50:05.091Z,24.63
2018-08-18T11:51:05.068Z,24.65
2018-08-18T11:52:05.042Z,24.81
2018-08-18T11:53:05.007Z,24.73
2018-08-18T11:54:04.978Z,24.68
2018-08-18T11:55:04.944Z,24.69
2018-08-18T11:56:04.916Z,24.84
2018-08-18T11:57:04.888Z,24.88
2018-08-18T11:58:04.861Z,25.13
2018-08-18T11:59:04.837Z,25.13
2018-08-18T12:00:04.806Z,25.18
2018-08-18T12:01:04.814Z,25.23
2018-08-18T12:02:04.793Z,25.13
2018-08-18T12:03:04.714Z,25.18
2018-08-18T12:04:04.684Z,25.08
2018-08-18T12:05:04.654Z,25.16
2018-08-18T12:06:04.631Z,25.06
2018-08-18T12:07:04.595Z,25.04
2018-08-18T12:08:04.565Z,24.98
2018-08-18T12:09:04.535Z,25.01
2018-08-18T12:10:04.504Z,25.01
2018-08-18T12:11:04.516Z,24.96
2018-08-18T12:12:04.450Z,24.76
2018-08-18T12:13:04.418Z,24.73
2018-08-18T12:14:04.391Z,24.80
2018-08-18T12:15:04.367Z,24.70
2018-08-18T12:16:04.335Z,24.76
2018-08-18T12:17:04.304Z,24.74
2018-08-18T12:18:04.276Z,24.73
2018-08-18T12:19:04.243Z,24.92
2018-08-18T12:20:04.213Z,24.86
2018-08-18T12:21:04.186Z,25.07
2018-08-18T12:22:04.156Z,25.01
2018-08-18T12:23:04.130Z,24.93
2018-08-18T12:24:04.099Z,24.81
2018-08-18T12:25:04.069Z,24.80
2018-08-18T12:26:04.042Z,24.85
2018-08-18T12:27:04.013Z,24.92
2018-08-18T12:28:03.987Z,24.93
2018-08-18T12:29:03.977Z,25.17
2018-08-18T12:30:03.945Z,25.04
2018-08-18T12:31:03.892Z,25.18
2018-08-18T12:32:03.867Z,25.14
2018-08-18T12:33:03.835Z,25.31
2018-08-18T12:34:03.803Z,25.47
2018-08-18T12:35:03.782Z,25.36
2018-08-18T12:36:03.750Z,25.36
2018-08-18T12:37:03.826Z,25.21
2018-08-18T12:38:03.695Z,25.38
2018-08-18T12:39:03.660Z,25.41
2018-08-18T12:40:03.646Z,25.41
2018-08-18T12:41:03.642Z,25.46
2018-08-18T12:42:03.576Z,25.51
2018-08-18T12:43:03.548Z,25.60
2018-08-18T12:44:03.517Z,25.63
2018-08-18T12:45:03.485Z,25.62
2018-08-18T12:46:03.458Z,25.54
2018-08-18T12:47:03.432Z,25.47
2018-08-18T12:48:03.406Z,25.63
2018-08-18T12:49:03.372Z,25.73
2018-08-18T12:50:03.382Z,25.50
2018-08-18T12:51:03.310Z,25.53
2018-08-18T12:52:03.283Z,25.59
2018-08-18T12:53:03.253Z,25.54
2018-08-18T12:54:03.223Z,25.59
2018-08-18T12:55:03.205Z,25.53
2018-08-18T12:56:03.169Z,25.54
2018-08-18T12:57:03.142Z,25.68
2018-08-18T12:58:03.115Z,25.54
2018-08-18T12:59:03.078Z,25.55
2018-08-18T13:00:03.051Z,25.60
2018-08-18T13:01:03.026Z,25.51
2018-08-18T13:02:02.998Z,25.58
2018-08-18T13:03:02.967Z,25.62
2018-08-18T13:04:02.940Z,25.65
2018-08-18T13:05:02.906Z,25.72
2018-08-18T13:06:02.875Z,25.65
2018-08-18T13:07:02.855Z,25.72
2018-08-18T13:08:02.824Z,25.59
2018-08-18T13:09:02.793Z,25.59
2018-08-18T13:10:02.767Z,25.54
2018-08-18T13:11:02.731Z,25.66
2018-08-18T13:12:02.705Z,25.54
2018-08-18T13:13:02.674Z,25.59
2018-08-18T13:14:02.650Z,25.63
2018-08-18T13:15:02.621Z,25.65
2018-08-18T13:16:02.591Z,25.72
2018-08-18T13:17:02.558Z,25.69